Hitachimaru — JD2063 — position and weather

sailwx.info

Track history (hours):
 
Tides and Currents Weather Stations Pressure Air Temp Water Temp Dewpoint Dewpoint Depression Visibility Wind Speed Wind Dir Waves Ship Positions

Hitachimaru

Last reported at 2014-Oct-24 14:33 UTC. Time now 2014-Oct-25 16:57 UTC.
Position N 35°19' E 139°43'.

Length 83 m; draft 4.5 m.

Type: Cargo ship. MMSI: 431301756.

Date/timePositionNaut miles runAvg speedWind from/ knotsBaromVisibWave heightAir tempDewpointWater temp
2014-Oct-24 14:33N 35°19' E 139°43'1111.1
2014-Oct-24 13:33N 35°29' E 139°50'5 0.2
2014-Oct-23 07:30N 35°33' E 139°54'4 3.7
2014-Oct-23 06:32N 35°30' E 139°50'0 0.1
2014-Oct-23 05:33N 35°30' E 139°50'1111.2
2014-Oct-23 04:33N 35°20' E 139°44'1110.6
2014-Oct-23 03:33N 35°10' E 139°46'  
2014-Oct-19 11:33N 34°37' E 134°57'9 9.1
2014-Oct-19 10:32N 34°30' E 135°04'1412.3
2014-Oct-19 09:26N 34°17' E 134°59'1112.6
2014-Oct-19 08:33N 34°06' E 135°00'24410.0
2014-Oct-18 08:14N 35°12' E 139°46'811.9
2014-Oct-18 07:33N 35°19' E 139°43'6 6.3
2014-Oct-18 06:33N 35°24' E 139°49'3 2.8
2014-Oct-18 05:33N 35°22' E 139°51'0 0.0
2014-Oct-18 04:33N 35°22' E 139°51'0 0.0
2014-Oct-18 03:33N 35°22' E 139°51'0 0.0
2014-Oct-18 02:33N 35°22' E 139°51'0 0.0
2014-Oct-18 01:33N 35°22' E 139°51'0 0.0
2014-Oct-18 00:33N 35°22' E 139°51'0 0.0
2014-Oct-17 23:33N 35°22' E 139°51'0 0.0
2014-Oct-17 22:33N 35°22' E 139°51'0 0.0
2014-Oct-17 21:33N 35°22' E 139°51'0 0.0
2014-Oct-17 20:33N 35°22' E 139°51'0 0.0
2014-Oct-17 19:34N 35°22' E 139°51'2 2.0
2014-Oct-17 18:33N 35°22' E 139°49'0 0.0
2014-Oct-17 17:33N 35°22' E 139°49'0 0.0
2014-Oct-17 16:33N 35°22' E 139°49'0 0.0
2014-Oct-17 15:34N 35°22' E 139°49'0 0.0
2014-Oct-17 14:33N 35°22' E 139°49'0 0.0
2014-Oct-17 13:33N 35°22' E 139°49'0 0.0
2014-Oct-17 12:34N 35°22' E 139°49'0 0.0
2014-Oct-17 11:33N 35°22' E 139°49'0 0.0
2014-Oct-17 10:33N 35°22' E 139°49'0 0.1
2014-Oct-17 09:33N 35°22' E 139°49'16 2.0
2014-Oct-17 01:33N 35°37' E 139°58'0 0.0
2014-Oct-16 16:18N 35°37' E 139°58'8 0.6
2014-Oct-16 02:32N 35°30' E 139°53'1111.0
2014-Oct-16 01:33N 35°21' E 139°45'1110.1
2014-Oct-16 00:31N 35°11' E 139°47'246 9.4
2014-Oct-14 22:26N 33°60' E 135°01'1112.4
2014-Oct-14 21:33N 34°11' E 135°02'1311.8
2014-Oct-14 20:28N 34°22' E 135°09'1 0.5
2014-Oct-14 18:27N 34°23' E 135°10'0 0.0
2014-Oct-14 17:33N 34°23' E 135°10'0 0.0
2014-Oct-14 15:33N 34°23' E 135°10'  
Track history (hours):
 
Tides and Currents Weather Stations Pressure Air Temp Water Temp Dewpoint Dewpoint Depression Visibility Wind Speed Wind Dir Waves Ship Positions

Hitachimaru

Last reported at 2014-Oct-24 14:33 UTC. Time now 2014-Oct-25 16:57 UTC.
Position N 35°19' E 139°43'.

Length 83 m; draft 4.5 m.

Type: Cargo ship. MMSI: 431301756.

Date/timePositionNaut miles runAvg speedWind from/ knotsBaromVisibWave heightAir tempDewpointWater temp
2014-Oct-24 14:33N 35°19' E 139°43'1111.1
2014-Oct-24 13:33N 35°29' E 139°50'5 0.2
2014-Oct-23 07:30N 35°33' E 139°54'4 3.7
2014-Oct-23 06:32N 35°30' E 139°50'0 0.1
2014-Oct-23 05:33N 35°30' E 139°50'1111.2
2014-Oct-23 04:33N 35°20' E 139°44'1110.6
2014-Oct-23 03:33N 35°10' E 139°46'  
2014-Oct-19 11:33N 34°37' E 134°57'9 9.1
2014-Oct-19 10:32N 34°30' E 135°04'1412.3
2014-Oct-19 09:26N 34°17' E 134°59'1112.6
2014-Oct-19 08:33N 34°06' E 135°00'24410.0
2014-Oct-18 08:14N 35°12' E 139°46'811.9
2014-Oct-18 07:33N 35°19' E 139°43'6 6.3
2014-Oct-18 06:33N 35°24' E 139°49'3 2.8
2014-Oct-18 05:33N 35°22' E 139°51'0 0.0
2014-Oct-18 04:33N 35°22' E 139°51'0 0.0
2014-Oct-18 03:33N 35°22' E 139°51'0 0.0
2014-Oct-18 02:33N 35°22' E 139°51'0 0.0
2014-Oct-18 01:33N 35°22' E 139°51'0 0.0
2014-Oct-18 00:33N 35°22' E 139°51'0 0.0
2014-Oct-17 23:33N 35°22' E 139°51'0 0.0
2014-Oct-17 22:33N 35°22' E 139°51'0 0.0
2014-Oct-17 21:33N 35°22' E 139°51'0 0.0
2014-Oct-17 20:33N 35°22' E 139°51'0 0.0
2014-Oct-17 19:34N 35°22' E 139°51'2 2.0
2014-Oct-17 18:33N 35°22' E 139°49'0 0.0
2014-Oct-17 17:33N 35°22' E 139°49'0 0.0
2014-Oct-17 16:33N 35°22' E 139°49'0 0.0
2014-Oct-17 15:34N 35°22' E 139°49'0 0.0
2014-Oct-17 14:33N 35°22' E 139°49'0 0.0
2014-Oct-17 13:33N 35°22' E 139°49'0 0.0
2014-Oct-17 12:34N 35°22' E 139°49'0 0.0
2014-Oct-17 11:33N 35°22' E 139°49'0 0.0
2014-Oct-17 10:33N 35°22' E 139°49'0 0.1
2014-Oct-17 09:33N 35°22' E 139°49'16 2.0
2014-Oct-17 01:33N 35°37' E 139°58'0 0.0
2014-Oct-16 16:18N 35°37' E 139°58'8 0.6
2014-Oct-16 02:32N 35°30' E 139°53'1111.0
2014-Oct-16 01:33N 35°21' E 139°45'1110.1
2014-Oct-16 00:31N 35°11' E 139°47'246 9.4
2014-Oct-14 22:26N 33°60' E 135°01'1112.4
2014-Oct-14 21:33N 34°11' E 135°02'1311.8
2014-Oct-14 20:28N 34°22' E 135°09'1 0.5
2014-Oct-14 18:27N 34°23' E 135°10'0 0.0
2014-Oct-14 17:33N 34°23' E 135°10'0 0.0
2014-Oct-14 15:33N 34°23' E 135°10'  

Dump ship's entire track history